Fort William, United Kingdom
Current Conditions -  °F | °C
As of 7:50 AM on Tuesday 21 Oct 2014 (Local Time) from EGPE Reporting Station
Rain Showers Rain Showers  
Wind Chill: 37°   Ceiling: 3200
Heat Index: 45°   Visibility: 6mi
Dew Point: 41°   Wind: 17mph
Humidity: 87%   Direction: 230°SW
Pressure: 29.12"   Gusts: NA
Location:  56.82°N, 5.11°W
Report Text: EGPE 210650Z 23015KT 9999 -SHRA FEW012 BKN032 07/05 Q0986
Loading
Personal Weather Stations






























Interactive Weather Map
Tropical Storm Tracking
New forecast layout! Learn more

10-Day Weather Forecast

Advertisements
Track Severe Weather on mobile